In Rescue
 
Open Full Screen Window  High Contrast Mode
Wind Gusting 16 knots
08
March 29, 2020 9:39 PM EDT
Present Weather: Drizzle
Weather Information
Wind Direction
  220 °
Wind Speed
  08 kt (9 mph)
Wind Gust
  16 kt (18 mph)
Altimeter
29.62 in
Visibility
10 SM
Temperature
05° C
41° F
Dewpoint
03° C
37° F
Humidity
87%
1hr Rain Fall
00.01 in.
24hr Rain Fall
00.64 in.
Sky Condition
Overcast @ 1,300 ft
MVFR

METAR KY31 300139Z AUTO 22008G16KT 10SM DZ OVC013 05/03 A2962 RMK AO2 P0001 T00530034

FAA Disclaimer: The data displayed is for advisory purposes only and is not to be used for flight planning or operations.